• Join FlightAware (Why Join?)
  • Login
  • US Flag 
10:44PM EST


 

Airport Tracker/Info


-or-


 

Live Flight TrackerFlight Track Log ✈ CPZ5714 ✈ 16-Jun-2013 ✈ KMSP - KALB

Flight Track Log - Related Links

Times and Time Zones

All times are in EDT time to prevent confusion due to time zone crossing. See the CPZ5714 flight status page for this flight to view local times or setup timezone preferences in your user account.

Time Position Orientation Groundspeed Altitude Reporting Facility
EDT Latitude Longitude Course Direction KTS MPH feet Rate Location/Type
08:44PM 44.9167 -93.2333 65° Northeast 173 199 2,400  Level Minneapolis TRACON
08:45PM 44.9514 -93.2486 343° North 193 222 3,300 2,160 Climbing Minneapolis Center
08:46PM 45.0003 -93.1844 43° Northeast 276 318 5,900 2,880 Climbing Minneapolis Center
08:47PM 45.0588 -92.5528 68° East  Level FlightAware Approximate
08:47PM 45.0367 -93.0794 64° Northeast 294 338 9,300  Level Minneapolis Center
08:48PM 45.1000 -92.3839 90° East  Level FlightAware Approximate
08:48PM 45.0761 -92.9703 63° Northeast 315 362 11,300  Level Minneapolis Center
08:49PM 45.1423 -92.2143 70° East  Level FlightAware Approximate
08:49PM 45.1186 -92.8408 65° Northeast 360 414 13,300  Level Minneapolis Center
08:50PM 45.1880 -92.0527 65° Northeast  Level FlightAware Approximate
08:50PM 45.1636 -92.7061 65° Northeast 379 436 15,400  Level Minneapolis Center
08:51PM 45.2214 -92.5344 64° Northeast 403 464 17,800 1,980 Climbing Minneapolis Center
08:52PM 45.2694 -92.3886 65° Northeast 409 471 19,600 1,500 Climbing Minneapolis Center
08:53PM 45.3136 -92.2253 69° East 441 507 20,900 1,260 Climbing Minneapolis Center
08:54PM 45.3372 -92.0425 80° East 468 539 22,300 1,260 Climbing Minneapolis Center
08:55PM 45.3631 -91.8575 79° East 478 550 23,600 1,200 Climbing Minneapolis Center
08:56PM 45.3892 -91.6669 79° East 490 564 24,800 1,080 Climbing Minneapolis Center
08:57PM 45.4181 -91.4322 80° East 501 577 25,900 960 Climbing Minneapolis Center
08:58PM 45.4464 -91.2294 79° East 511 588 26,900 960 Climbing Minneapolis Center
08:59PM 45.4650 -91.0253 83° East 518 596 28,000 960 Climbing Minneapolis Center
09:00PM 45.4169 -90.8322 109° East 518 596 29,000 960 Climbing Minneapolis Center
09:01PM 45.3578 -90.6439 114° Southeast 523 602 30,000 960 Climbing Minneapolis Center
09:02PM 45.2981 -90.4567 114° Southeast 523 602 31,000 1,020 Climbing Minneapolis Center
09:03PM 45.2606 -90.2619 105° East 516 594 32,100 960 Climbing Minneapolis Center
09:04PM 45.2414 -90.0194 96° East 518 596 33,100 960 Climbing Minneapolis Center
09:05PM 45.2261 -89.8172 96° East 519 597 34,200 720 Climbing Minneapolis Center
09:06PM 45.2114 -89.6592 97° East 514 592 34,700 360 Climbing Minneapolis Center
09:07PM 45.1903 -89.4178 97° East 517 595 35,000 120 Climbing Minneapolis Center
09:08PM 45.1689 -89.1728 97° East 523 602 35,000  Level Minneapolis Center
09:10PM 45.1508 -88.9642 97° East 534 615 35,000  Level Minneapolis Center
09:11PM 45.1303 -88.7536 98° East 541 623 35,000  Level Minneapolis Center
09:12PM 45.1128 -88.5492 97° East 546 628 35,000  Level Minneapolis Center
09:13PM 45.0906 -88.3381 98° East 546 628 35,000  Level Minneapolis Center
09:14PM 45.0658 -88.0819 98° East 547 629 35,000  Level Minneapolis Center
09:15PM 45.0492 -87.9100 98° East 550 633 35,000  Level Minneapolis Center
09:16PM 45.0219 -87.6528 98° East 554 638 35,000  Level Minneapolis Center
09:17PM 45.0006 -87.4367 98° East 555 639 35,000  Level Minneapolis Center
09:18PM 44.9769 -87.2211 99° East 557 641 35,000  Level Minneapolis Center
09:19PM 44.9486 -86.9633 99° East 556 640 35,000  Level Minneapolis Center
09:20PM 44.9244 -86.7433 99° East 557 641 35,000  Level Minneapolis Center
09:21PM 44.9019 -86.5503 99° East 559 643 35,000  Level Minneapolis Center
09:22PM 44.8778 -86.3364 99° East 556 640 35,000  Level Minneapolis Center
09:23PM 44.8578 -86.1633 99° East 557 641 35,000  Level Minneapolis Center
09:24PM 44.8219 -85.8617 99° East 558 642 35,000  Level Minneapolis Center
09:25PM 44.7964 -85.6475 99° East 556 640 35,000  Level Minneapolis Center
09:26PM 44.7722 -85.4444 99° East 549 632 35,000  Level Minneapolis Center
09:27PM 44.7458 -85.2331 100° East 550 633 35,000  Level Minneapolis Center
09:28PM 44.7142 -84.9794 100° East 550 633 35,000  Level Minneapolis Center
09:29PM 44.6869 -84.7686 100° East 549 632 35,000  Level Minneapolis Center
09:30PM 44.6606 -84.5581 100° East 549 632 35,000  Level Minneapolis Center
09:31PM 44.6325 -84.3478 101° East 550 633 35,000  Level Minneapolis Center
09:32PM 44.6039 -84.1381 101° East 549 632 35,000  Level Minneapolis Center
09:33PM 44.5650 -83.9778 109° East 547 629 35,000  Level Minneapolis Center
09:34PM 44.5017 -83.7372 110° East 547 629 35,000  Level Minneapolis Center
09:35PM 44.4422 -83.5067 110° East 533 613 35,000  Level Minneapolis Center
09:37PM 44.3000 -83.2000 123° Southeast 530 610 35,000  Level Toronto Center
09:37PM 44.2947 -83.1567 100° East 523 602 35,000  Level Minneapolis Center
09:38PM 44.2167 -83.0000 125° Southeast 530 610 35,000  Level Toronto Center
09:39PM 44.1500 -82.8333 119° Southeast 530 610 35,000  Level Toronto Center
09:40PM 44.0833 -82.6500 117° Southeast 530 610 35,000  Level Toronto Center
09:41PM 44.0700 -82.6294 132° Southeast 529 609 35,000  Level Minneapolis Center
09:41PM 44.0000 -82.4833 124° Southeast 530 610 35,000  Level Toronto Center
09:42PM 43.9333 -82.3167 119° Southeast 530 610 35,000  Level Toronto Center
09:43PM 43.8500 -82.1333 122° Southeast 530 610 35,000  Level Toronto Center
09:44PM 43.7667 -81.9667 125° Southeast 530 610 35,000  Level Toronto Center
09:45PM 43.7500 -81.7500 96° East 530 610 35,000  Level Toronto Center
09:46PM 43.7333 -81.5667 97° East 530 610 35,000  Level Toronto Center
09:47PM 43.7000 -81.3333 101° East 530 610 35,000  Level Toronto Center
09:48PM 43.6833 -81.1500 97° East 530 610 35,000  Level Toronto Center
09:49PM 43.6667 -80.9500 97° East 530 610 35,000  Level Toronto Center
09:50PM 43.6500 -80.7333 96° East 530 610 35,000  Level Toronto Center
09:51PM 43.6333 -80.5500 97° East 530 610 35,000  Level Toronto Center
09:52PM 43.6167 -80.3500 96° East 530 610 35,000  Level Toronto Center
09:53PM 43.6000 -80.1333 96° East 530 610 35,000  Level Toronto Center
09:54PM 43.5667 -79.9500 104° East 530 610 35,000 -60 Level Toronto Center
09:55PM 43.5500 -79.7500 96° East 530 610 34,900 -600 Descending Toronto Center
09:56PM 43.5333 -79.5333 96° East 540 621 33,900 -960 Descending Toronto Center
09:57PM 43.5000 -79.3333 103° East 540 621 33,000 -480 Descending Toronto Center
09:58PM 43.4833 -79.1333 96° East 530 610 33,000  Level Toronto Center
09:59PM 43.4667 -78.9167 96° East 530 610 33,000  Level Toronto Center
10:00PM 43.4333 -78.7333 104° East 530 610 33,000  Level Toronto Center
10:01PM 43.4167 -78.5167 96° East 540 621 33,000  Level Toronto Center
10:02PM 43.3969 -78.3347 98° East 541 623 33,000 -180 Level Cleveland Center
10:03PM 43.3719 -78.1186 99° East 536 617 32,700 -420 Descending Cleveland Center
10:04PM 43.3467 -77.9197 100° East 536 617 32,200 -540 Descending Cleveland Center
10:06PM 43.2981 -77.5678 101° East 521 600 31,300 -540 Descending Boston Center
10:07PM 43.2758 -77.3661 99° East 521 600 30,800 -540 Descending Boston Center
10:08PM 43.2486 -77.1700 101° East 526 605 30,300 -540 Descending Boston Center
10:09PM 43.2211 -76.9711 101° East 526 605 29,800 -540 Descending Boston Center
10:10PM 43.1956 -76.7728 100° East 526 605 29,300 -600 Descending Boston Center
10:11PM 43.1717 -76.5744 99° East 526 605 28,700 -600 Descending Boston Center
10:12PM 43.1450 -76.3819 101° East 526 605 28,200 -540 Descending Boston Center
10:13PM 43.1183 -76.1894 101° East 526 605 27,700 -480 Descending Boston Center
10:14PM 43.0908 -76.0000 101° East 515 593 27,200 -480 Descending Boston Center
10:15PM 43.0583 -75.7708 101° East 508 585 26,700 -600 Descending Boston Center
10:16PM 43.0300 -75.5875 102° East 508 585 26,100 -600 Descending Boston Center
10:17PM 43.0017 -75.4014 102° East 503 579 25,600 -1,620 Descending Boston Center
10:18PM 42.9731 -75.2156 102° East 498 573 22,900 -2,760 Descending Boston Center
10:19PM 42.9500 -75.0469 101° East 482 555 20,100 -2,700 Descending Boston Center
10:20PM 42.9244 -74.8814 102° East 461 531 17,500 -2,640 Descending Boston Center
10:21PM 42.9078 -74.7758 102° East 414 476 15,600 -2,400 Descending Boston Center
10:21PM 42.9022 -74.7444 104° East 415 478 15,100 -2,400 Descending Boston Center
10:22PM 42.8894 -74.6533 101° East 400 460 13,700 -2,520 Descending Boston Center
10:22PM 42.8783 -74.5822 102° East 397 457 12,600 -2,280 Descending Boston Center
10:23PM 42.8672 -74.5108 102° East 382 440 11,400 -1,620 Descending Boston Center
10:23PM 42.8597 -74.4539 100° East 392 451 11,000 -540 Descending Boston Center
10:24PM 42.8447 -74.3686 103° East 379 436 10,900 -540 Descending Boston Center
10:24PM 42.8311 -74.3086 107° East 376 433 10,500 -1,200 Descending Boston Center
10:25PM 42.8092 -74.2428 114° Southeast 329 379 9,700 -1,320 Descending Boston Center
10:25PM 42.7953 -74.2056 117° Southeast 340 391 9,200 -1,980 Descending Boston Center
10:26PM 42.7692 -74.1314 116° Southeast 314 361 7,700 -2,280 Descending Boston Center
10:26PM 42.7514 -74.0772 114° Southeast 315 362 6,500 -2,580 Descending Boston Center
10:27PM 42.7353 -74.0286 114° Southeast 308 354 5,100 -2,820 Descending Boston Center
10:27PM 42.7172 -73.9744 114° Southeast 302 348 3,700 -1,740 Descending Boston Center
10:28PM 42.6992 -73.9289 118° Southeast 289 333 3,400 -540 Descending Boston Center
10:28PM 42.6850 -73.8833 113° Southeast 288 331 3,200 -720 Descending Boston Center
10:29PM 42.6711 -73.8464 117° Southeast 217 250 2,700 -540 Descending Boston Center
10:29PM 42.6467 -73.7836 118° Southeast 274 315 2,700 -720 Level Boston Center
10:30PM 42.6758 -73.7900 351° North 173 199 2,000 -1,380 Descending Boston Center
10:31PM 42.7069 -73.8047 341° North 112 129 800 -1,200 Descending Boston Center